Time;durP1;ratioP1;P1;durP2;ratioP2;P2;SDS_P1;SDS_P2;PMS_P1;PMS_P2;Temp;Humidity;BMP_temperature;BMP_pressure;BME280_temperature;BME280_humidity;BME280_pressure;Samples;Min_cycle;Max_cycle;Signal;HPM_P1;HPM_P2
2023/01/06 00:00:37;;;;;;;4.30;3.70;;;;;;;1.95;76.88;100130.04;99910;1297;138075;-70
2023/01/06 00:03:17;;;;;;;4.10;3.50;;;;;;;1.96;76.60;100123.87;100403;1263;109073;-70
2023/01/06 00:05:44;;;;;;;5.70;3.80;;;;;;;1.93;76.67;100126.27;99585;1288;1003441;-70
2023/01/06 00:08:11;;;;;;;4.20;3.70;;;;;;;1.93;76.52;100133.81;100254;1288;137114;-70
2023/01/06 00:10:39;;;;;;;5.30;3.70;;;;;;;1.92;76.76;100134.67;100138;1286;257837;-70
2023/01/06 00:13:06;;;;;;;5.10;4.50;;;;;;;1.90;76.61;100143.77;100229;1288;137011;-70
2023/01/06 00:15:33;;;;;;;5.70;4.30;;;;;;;1.90;76.76;100155.08;100265;1285;110175;-69
2023/01/06 00:18:00;;;;;;;4.80;4.00;;;;;;;1.87;76.69;100149.60;100306;1288;106984;-69
2023/01/06 00:20:27;;;;;;;5.00;4.20;;;;;;;1.87;76.62;100150.11;99427;1294;1003495;-70
2023/01/06 00:22:54;;;;;;;5.90;3.90;;;;;;;1.88;76.61;100161.94;100275;1286;108006;-70
2023/01/06 00:25:22;;;;;;;4.80;3.80;;;;;;;1.93;76.89;100165.88;99440;1292;1003517;-69
2023/01/06 00:27:49;;;;;;;5.00;3.60;;;;;;;1.98;76.78;100173.96;100353;1292;109181;-70
2023/01/06 00:30:16;;;;;;;3.90;3.50;;;;;;;2.01;76.71;100171.73;100183;1286;137293;-70
2023/01/06 00:32:43;;;;;;;5.30;4.00;;;;;;;2.03;76.73;100177.40;100925;1279;95140;-69
2023/01/06 00:35:11;;;;;;;5.80;4.80;;;;;;;2.05;76.83;100184.26;100314;1288;107634;-69
2023/01/06 00:37:38;;;;;;;4.90;4.10;;;;;;;2.06;76.67;100187.86;100138;1286;137617;-69
2023/01/06 00:40:07;;;;;;;5.50;4.20;;;;;;;2.03;76.66;100199.52;100347;1289;109743;-69
2023/01/06 00:42:36;;;;;;;5.60;4.00;;;;;;;2.04;76.89;100203.46;100148;1288;139268;-69
2023/01/06 00:45:03;;;;;;;4.20;3.50;;;;;;;2.06;76.88;100207.40;100336;1288;96484;-70
2023/01/06 00:47:31;;;;;;;5.30;4.00;;;;;;;2.09;76.67;100207.23;100296;1294;107133;-70
2023/01/06 00:49:58;;;;;;;4.10;3.50;;;;;;;2.09;76.56;100216.33;100170;1286;136976;-70
2023/01/06 00:52:25;;;;;;;4.40;4.00;;;;;;;2.08;76.42;100215.46;100271;1278;109043;-70
2023/01/06 00:54:52;;;;;;;4.70;3.70;;;;;;;2.05;76.19;100222.50;100247;1288;137833;-71
2023/01/06 00:57:19;;;;;;;4.40;3.80;;;;;;;2.01;75.82;100220.44;100313;1286;96393;-70
2023/01/06 00:59:46;;;;;;;4.60;3.50;;;;;;;1.94;75.58;100223.66;100295;1279;107385;-70
2023/01/06 01:02:13;;;;;;;4.30;3.90;;;;;;;1.89;75.73;100227.77;99981;1286;137196;-70
2023/01/06 01:04:40;;;;;;;4.20;3.80;;;;;;;1.83;75.66;100230.17;100082;1289;108902;-70
2023/01/06 01:07:09;;;;;;;4.40;3.80;;;;;;;1.78;75.74;100234.59;99397;1288;1002357;-70
2023/01/06 01:09:38;;;;;;;3.80;3.20;;;;;;;1.76;75.76;100233.21;100065;1289;96478;-70
2023/01/06 01:12:11;;;;;;;4.60;3.50;;;;;;;1.75;75.86;100231.16;99880;1295;107370;-70
2023/01/06 01:14:45;;;;;;;4.60;3.10;;;;;;;1.80;76.10;100235.13;100001;1297;96468;-69
2023/01/06 01:17:15;;;;;;;4.30;3.60;;;;;;;1.83;76.06;100246.98;100094;1294;111247;-69
2023/01/06 01:19:42;;;;;;;3.70;3.30;;;;;;;1.82;75.90;100256.57;99811;1291;137388;-70
2023/01/06 01:22:10;;;;;;;4.10;3.70;;;;;;;1.82;75.56;100267.88;99926;1295;96866;-70
2023/01/06 01:24:37;;;;;;;4.60;4.00;;;;;;;1.76;75.46;100267.15;99897;1298;136779;-70
2023/01/06 01:27:05;;;;;;;3.80;3.40;;;;;;;1.70;75.42;100267.14;100025;1290;96463;-70
2023/01/06 01:29:32;;;;;;;4.10;3.70;;;;;;;1.65;75.60;100277.41;99976;1283;109837;-70
2023/01/06 01:32:00;;;;;;;5.40;4.10;;;;;;;1.62;75.87;100286.64;99877;1289;136938;-69
2023/01/06 01:34:27;;;;;;;4.20;3.80;;;;;;;1.60;76.09;100292.27;100095;1281;96478;-70
2023/01/06 01:36:55;;;;;;;4.20;3.40;;;;;;;1.60;75.89;100300.16;99875;1291;137747;-70
2023/01/06 01:39:24;;;;;;;4.10;3.20;;;;;;;1.59;75.74;100299.30;99956;1289;96898;-70
2023/01/06 01:41:52;;;;;;;3.30;2.80;;;;;;;1.59;76.01;100313.36;100143;1289;109428;-70
2023/01/06 01:45:01;;;;;;;4.20;3.30;;;;;;;1.64;76.03;100318.02;99969;1288;138507;-70
2023/01/06 01:47:45;;;;;;;3.90;3.30;;;;;;;1.67;76.04;100315.98;99924;1298;96455;-70
2023/01/06 01:50:19;;;;;;;4.30;3.60;;;;;;;1.71;75.84;100317.88;100034;1297;136615;-69
2023/01/06 01:52:50;;;;;;;4.40;3.80;;;;;;;1.69;75.69;100327.64;100119;1295;96475;-70
2023/01/06 01:55:18;;;;;;;4.30;3.70;;;;;;;1.67;75.73;100336.38;100012;1291;136807;-70
2023/01/06 01:57:51;;;;;;;4.20;3.80;;;;;;;1.66;75.89;100333.96;100080;1289;109315;-70
2023/01/06 02:00:20;;;;;;;4.00;3.60;;;;;;;1.66;75.95;100327.12;101063;1288;137260;-69
2023/01/06 02:02:47;;;;;;;4.70;4.10;;;;;;;1.66;76.03;100323.86;100062;1291;107409;-69
2023/01/06 02:05:18;;;;;;;4.80;3.60;;;;;;;1.66;76.03;100335.86;99958;1298;96372;-70
2023/01/06 02:07:46;;;;;;;3.90;3.50;;;;;;;1.66;75.94;100347.86;99116;1290;1003134;-70
2023/01/06 02:10:16;;;;;;;4.20;3.80;;;;;;;1.66;75.83;100354.89;100083;1291;107582;-70
2023/01/06 02:12:45;;;;;;;4.20;3.70;;;;;;;1.68;75.98;100361.91;100030;1288;138973;-70
2023/01/06 02:15:23;;;;;;;6.30;4.20;;;;;;;1.67;75.84;100367.23;99974;1281;107451;-69
2023/01/06 02:18:17;;;;;;;8.40;4.30;;;;;;;1.67;75.76;100365.52;100075;1281;96550;-70
2023/01/06 02:21:02;;;;;;;4.70;4.20;;;;;;;1.62;75.84;100361.03;100104;1287;109274;-70
2023/01/06 02:24:02;;;;;;;4.90;4.20;;;;;;;1.59;75.86;100369.39;99923;1291;107158;-70
2023/01/06 02:27:08;;;;;;;7.50;4.30;;;;;;;1.55;75.90;100375.37;99961;1289;137466;-70
2023/01/06 02:30:26;;;;;;;5.00;3.80;;;;;;;1.52;75.93;100386.50;100064;1289;107565;-71
2023/01/06 02:32:59;;;;;;;;;;;;;;;1.52;76.02;100395.05;98946;1297;1002867;-69
2023/01/06 02:35:54;;;;;;;4.60;3.90;;;;;;;1.52;76.05;100397.80;99663;1293;110643;-68
2023/01/06 02:38:34;;;;;;;6.60;4.10;;;;;;;1.50;76.02;100405.85;99556;1293;137488;-69
2023/01/06 02:41:22;;;;;;;7.60;4.20;;;;;;;1.51;76.05;100407.91;99667;1297;96390;-69
2023/01/06 02:43:52;;;;;;;;;;;;;;;1.51;76.12;100406.20;99576;1291;136655;-70
2023/01/06 02:46:30;;;;;;;5.20;4.70;;;;;;;1.52;75.99;100415.63;99663;1294;96492;-70
2023/01/06 02:49:10;;;;;;;5.00;4.40;;;;;;;1.49;75.93;100428.11;99574;1300;137051;-70
2023/01/06 02:51:45;;;;;;;5.30;4.40;;;;;;;1.47;76.05;100428.28;99634;1296;106821;-68
2023/01/06 02:54:20;;;;;;;6.80;4.70;;;;;;;1.45;76.03;100432.89;99665;1294;96479;-70
2023/01/06 02:56:54;;;;;;;4.70;4.10;;;;;;;1.46;76.20;100435.13;98800;1296;1003783;-70
2023/01/06 02:59:26;;;;;;;4.50;4.00;;;;;;;1.47;76.17;100443.19;99610;1296;96483;-70
2023/01/06 03:01:56;;;;;;;5.60;4.40;;;;;;;1.48;76.02;100447.30;99516;1295;137728;-71
2023/01/06 03:04:29;;;;;;;4.70;4.00;;;;;;;1.52;75.93;100450.41;99709;1295;108947;-70
2023/01/06 03:07:00;;;;;;;5.30;4.30;;;;;;;1.50;75.59;100446.98;98513;1295;1002686;-70
2023/01/06 03:09:33;;;;;;;5.80;4.50;;;;;;;1.48;75.46;100446.27;100131;1290;107411;-71
2023/01/06 03:12:06;;;;;;;5.90;4.60;;;;;;;1.46;75.47;100449.86;100063;1299;96463;-70
2023/01/06 03:14:37;;;;;;;5.50;4.70;;;;;;;1.42;75.41;100457.35;99932;1290;137445;-70
2023/01/06 03:17:05;;;;;;;5.50;4.80;;;;;;;1.36;75.43;100452.51;99962;1288;107579;-69
2023/01/06 03:19:33;;;;;;;4.10;3.70;;;;;;;1.34;75.62;100451.80;99989;1289;137486;-70
2023/01/06 03:22:03;;;;;;;4.20;3.80;;;;;;;1.32;75.54;100462.41;100113;1289;106992;-69
2023/01/06 03:24:30;;;;;;;4.60;4.10;;;;;;;1.30;75.53;100463.60;99287;1291;1003240;-70
2023/01/06 03:26:58;;;;;;;3.90;3.50;;;;;;;1.32;75.55;100472.19;100073;1295;109961;-69
2023/01/06 03:29:26;;;;;;;6.50;4.20;;;;;;;1.37;75.76;100473.41;100082;1285;107211;-69
2023/01/06 03:32:01;;;;;;;5.00;4.30;;;;;;;1.40;75.64;100476.34;99879;1285;137187;-69
2023/01/06 03:34:43;;;;;;;4.60;4.00;;;;;;;1.42;75.66;100474.48;100091;1282;107567;-69
2023/01/06 03:37:21;;;;;;;4.80;4.30;;;;;;;1.43;75.58;100473.46;100005;1291;137072;-69
2023/01/06 03:39:58;;;;;;;5.40;3.40;;;;;;;1.43;75.33;100483.75;100228;1293;110217;-69
2023/01/06 03:45:34;;;;;;;5.30;3.80;;;;;;;1.41;75.28;100491.95;100191;1288;96493;-69
2023/01/06 03:48:09;;;;;;;4.60;4.10;;;;;;;1.42;75.15;100493.15;99356;1297;1003554;-70
2023/01/06 03:50:40;;;;;;;4.00;3.60;;;;;;;1.40;75.01;100496.39;99252;1295;1002595;-69
2023/01/06 03:53:18;;;;;;;4.40;3.80;;;;;;;1.39;75.14;100495.70;100064;1295;110113;-71
2023/01/06 03:55:50;;;;;;;5.30;3.90;;;;;;;1.40;75.06;100501.70;99852;1294;137694;-70
2023/01/06 03:58:19;;;;;;;5.20;3.90;;;;;;;1.40;75.09;100507.02;100078;1289;97010;-69
2023/01/06 04:00:48;;;;;;;5.10;4.10;;;;;;;1.42;75.14;100502.91;100082;1280;137739;-68
2023/01/06 04:03:16;;;;;;;4.60;3.70;;;;;;;1.44;75.07;100506.21;100005;1295;96427;-69
2023/01/06 04:05:44;;;;;;;4.40;4.00;;;;;;;1.46;74.83;100508.63;100583;1289;110115;-69
2023/01/06 04:08:12;;;;;;;4.60;3.80;;;;;;;1.47;74.91;100510.18;99922;1296;138757;-69
2023/01/06 04:10:39;;;;;;;5.00;3.90;;;;;;;1.48;74.93;100509.51;100038;1291;96983;-69
2023/01/06 04:13:06;;;;;;;5.10;4.10;;;;;;;1.48;74.51;100510.02;99941;1297;138802;-70
2023/01/06 04:15:33;;;;;;;4.30;3.90;;;;;;;1.45;74.42;100517.20;100092;1276;96470;-70
2023/01/06 04:18:04;;;;;;;4.20;3.80;;;;;;;1.43;74.37;100515.95;99402;1288;1003423;-69
2023/01/06 04:20:33;;;;;;;4.20;3.80;;;;;;;1.43;74.24;100522.81;100067;1288;138614;-70
2023/01/06 04:23:13;;;;;;;4.30;3.90;;;;;;;1.42;74.28;100520.91;100116;1288;96478;-69
2023/01/06 04:25:41;;;;;;;4.90;4.30;;;;;;;1.42;74.32;100520.73;99858;1291;137736;-68
2023/01/06 04:28:17;;;;;;;4.50;4.00;;;;;;;1.42;73.98;100522.63;100021;1298;96606;-69
2023/01/06 04:30:44;;;;;;;4.80;4.20;;;;;;;1.39;73.99;100529.79;100007;1291;138140;-70
2023/01/06 04:33:11;;;;;;;5.90;4.70;;;;;;;1.34;73.57;100528.73;100115;1288;106095;-68
2023/01/06 04:35:39;;;;;;;4.20;3.80;;;;;;;1.31;73.91;100525.63;99438;1288;1003439;-69
2023/01/06 04:38:06;;;;;;;4.60;4.10;;;;;;;1.30;74.08;100529.71;99907;1295;139533;-69
2023/01/06 04:40:33;;;;;;;6.20;5.40;;;;;;;1.29;74.24;100533.48;100086;1288;96737;-69
2023/01/06 04:43:06;;;;;;;5.90;4.30;;;;;;;1.31;74.20;100529.39;99309;1296;1002745;-69
2023/01/06 04:45:34;;;;;;;5.90;4.60;;;;;;;1.30;74.16;100523.55;100071;1289;107118;-68
2023/01/06 04:48:01;;;;;;;5.60;4.60;;;;;;;1.27;73.98;100529.18;100061;1288;96453;-71
2023/01/06 04:50:28;;;;;;;5.50;4.60;;;;;;;1.23;73.97;100531.86;99984;1291;139391;-68
2023/01/06 04:52:57;;;;;;;4.90;4.30;;;;;;;1.20;74.08;100535.77;99400;1288;1002583;-69
2023/01/06 04:55:24;;;;;;;5.20;4.40;;;;;;;1.20;74.05;100533.55;100021;1295;137734;-69
2023/01/06 04:57:51;;;;;;;7.70;5.30;;;;;;;1.19;74.21;100533.89;100017;1298;107233;-70
2023/01/06 05:00:19;;;;;;;6.80;5.60;;;;;;;1.22;74.30;100536.30;100075;1289;96471;-69
2023/01/06 05:02:46;;;;;;;5.60;4.30;;;;;;;1.26;74.32;100527.44;100028;1291;108407;-69
2023/01/06 05:05:14;;;;;;;4.80;4.00;;;;;;;1.32;74.38;100524.42;100064;1298;96391;-69
2023/01/06 05:07:41;;;;;;;5.30;4.20;;;;;;;1.35;74.13;100526.85;99976;1291;137792;-69
2023/01/06 05:10:10;;;;;;;8.10;4.30;;;;;;;1.36;74.22;100529.08;100041;1291;108827;-70
2023/01/06 05:12:37;;;;;;;6.70;4.50;;;;;;;1.36;74.22;100523.43;100336;1288;137899;-69
2023/01/06 05:15:05;;;;;;;5.40;4.40;;;;;;;1.34;73.96;100519.47;100087;1291;107337;-69
2023/01/06 05:17:32;;;;;;;5.20;4.40;;;;;;;1.28;73.86;100526.61;100040;1288;96495;-69
2023/01/06 05:20:00;;;;;;;5.10;4.30;;;;;;;1.21;73.70;100530.98;100010;1289;136858;-70
2023/01/06 05:22:27;;;;;;;6.40;4.70;;;;;;;1.15;73.76;100532.31;100062;1287;106492;-69
2023/01/06 05:24:54;;;;;;;4.50;4.10;;;;;;;1.11;73.83;100535.18;100022;1289;138474;-70
2023/01/06 05:27:21;;;;;;;5.00;4.40;;;;;;;1.08;73.93;100541.47;99411;1285;1002881;-70
2023/01/06 05:29:49;;;;;;;5.50;4.20;;;;;;;1.05;73.98;100547.94;100080;1285;96537;-69
2023/01/06 05:32:16;;;;;;;5.40;3.80;;;;;;;1.02;73.97;100560.07;100020;1288;138917;-68
2023/01/06 05:34:43;;;;;;;4.90;4.20;;;;;;;1.03;74.19;100563.84;99409;1281;1002500;-69
2023/01/06 05:37:10;;;;;;;4.90;3.40;;;;;;;1.04;74.14;100566.41;100086;1288;137834;-69
2023/01/06 05:39:38;;;;;;;4.90;3.70;;;;;;;1.03;73.87;100562.81;100096;1295;107447;-70
2023/01/06 05:42:05;;;;;;;5.50;3.60;;;;;;;1.06;73.88;100562.14;100133;1288;96426;-70
2023/01/06 05:44:32;;;;;;;4.50;3.60;;;;;;;1.09;73.86;100565.98;99984;1291;137583;-69
2023/01/06 05:46:59;;;;;;;4.80;3.80;;;;;;;1.13;73.74;100571.16;100044;1291;106927;-69
2023/01/06 05:49:26;;;;;;;4.40;3.80;;;;;;;1.13;73.63;100575.62;99976;1288;137229;-70
2023/01/06 05:51:53;;;;;;;10.60;7.80;;;;;;;1.10;73.52;100582.08;100026;1281;109203;-71
2023/01/06 05:54:20;;;;;;;4.80;4.20;;;;;;;1.07;73.34;100584.45;100112;1290;96425;-68
2023/01/06 05:56:48;;;;;;;5.20;4.30;;;;;;;1.04;73.44;100585.77;100089;1295;110581;-70
2023/01/06 05:59:15;;;;;;;4.70;4.20;;;;;;;1.01;73.47;100582.32;100036;1282;107766;-70
2023/01/06 06:01:42;;;;;;;6.80;4.80;;;;;;;0.93;73.14;100588.56;99961;1281;138225;-70
2023/01/06 06:04:11;;;;;;;5.50;4.90;;;;;;;0.85;73.33;100594.95;99411;1289;1003004;-70
2023/01/06 06:06:38;;;;;;;4.40;3.90;;;;;;;0.80;73.49;100601.40;101484;1288;137990;-70
2023/01/06 06:09:06;;;;;;;6.20;4.50;;;;;;;0.78;73.68;100609.59;100169;1292;109763;-69
2023/01/06 06:11:32;;;;;;;4.20;3.80;;;;;;;0.79;73.78;100608.05;100113;1288;106940;-69
2023/01/06 06:14:00;;;;;;;5.10;4.20;;;;;;;0.80;73.64;100614.76;100070;1295;139591;-69
2023/01/06 06:16:28;;;;;;;4.90;4.30;;;;;;;0.81;73.70;100617.33;100141;1289;108018;-70
2023/01/06 06:18:57;;;;;;;5.20;4.40;;;;;;;0.81;73.66;100616.65;99335;1288;1003798;-70
2023/01/06 06:21:26;;;;;;;5.10;4.40;;;;;;;0.80;73.75;100620.74;100141;1294;109642;-70
2023/01/06 06:23:54;;;;;;;5.00;4.50;;;;;;;0.81;73.76;100613.58;100120;1292;108654;-70
2023/01/06 06:26:21;;;;;;;5.70;5.00;;;;;;;0.82;73.79;100613.58;100088;1282;137113;-70
2023/01/06 06:28:48;;;;;;;5.30;4.70;;;;;;;0.80;73.61;100611.48;100106;1285;107849;-70
2023/01/06 06:31:19;;;;;;;5.20;4.40;;;;;;;0.75;73.62;100618.29;100032;1289;139034;-70
2023/01/06 06:33:49;;;;;;;6.60;5.10;;;;;;;0.72;73.81;100622.36;100183;1286;110080;-68
2023/01/06 06:36:16;;;;;;;5.70;5.20;;;;;;;0.69;73.78;100621.60;100104;1288;108363;-69
2023/01/06 06:38:44;;;;;;;6.60;5.20;;;;;;;0.66;73.88;100626.70;100060;1289;138388;-70
2023/01/06 06:41:11;;;;;;;6.80;5.30;;;;;;;0.63;73.86;100634.19;99422;1294;1003437;-70
2023/01/06 06:43:38;;;;;;;6.60;4.90;;;;;;;0.58;73.82;100644.06;100003;1287;138185;-70
2023/01/06 06:46:06;;;;;;;5.00;4.50;;;;;;;0.56;73.96;100656.02;100168;1281;109227;-70
2023/01/06 06:48:33;;;;;;;6.00;4.80;;;;;;;0.56;74.13;100660.29;99992;1282;137967;-70
2023/01/06 06:51:01;;;;;;;6.60;4.80;;;;;;;0.56;74.11;100667.83;100191;1288;95679;-70
2023/01/06 06:53:28;;;;;;;6.00;5.20;;;;;;;0.58;74.30;100666.65;100115;1294;109473;-69
2023/01/06 06:55:55;;;;;;;5.30;4.80;;;;;;;0.60;74.30;100669.25;99989;1295;137774;-70
2023/01/06 06:58:23;;;;;;;5.40;4.50;;;;;;;0.63;74.27;100675.27;100000;1291;109485;-69
2023/01/06 07:00:50;;;;;;;6.10;4.90;;;;;;;0.67;74.34;100676.52;99935;1295;139661;-70
2023/01/06 07:03:17;;;;;;;4.90;4.40;;;;;;;0.72;74.44;100684.80;100032;1288;96574;-70
2023/01/06 07:05:45;;;;;;;5.70;4.50;;;;;;;0.76;74.44;100685.39;100071;1291;106604;-70
2023/01/06 07:08:13;;;;;;;6.50;5.30;;;;;;;0.81;74.55;100683.41;99956;1289;138080;-70
2023/01/06 07:10:40;;;;;;;6.60;5.10;;;;;;;0.87;74.45;100685.02;100095;1288;109711;-70
2023/01/06 07:13:08;;;;;;;8.40;6.30;;;;;;;0.89;74.25;100684.05;99943;1294;137678;-69
2023/01/06 07:15:35;;;;;;;6.90;5.50;;;;;;;0.94;74.28;100688.73;100117;1295;96992;-70
2023/01/06 07:18:03;;;;;;;6.60;5.30;;;;;;;0.99;74.31;100691.20;100078;1281;108158;-70
2023/01/06 07:20:31;;;;;;;5.20;4.60;;;;;;;1.04;74.19;100689.70;99993;1294;137754;-71
2023/01/06 07:22:58;;;;;;;5.80;4.60;;;;;;;1.06;73.91;100684.08;99370;1289;1003547;-70
2023/01/06 07:25:25;;;;;;;5.10;4.50;;;;;;;1.05;73.60;100683.05;99993;1288;138965;-71
2023/01/06 07:27:57;;;;;;;5.60;4.20;;;;;;;1.06;73.57;100681.35;100132;1288;96455;-70
2023/01/06 07:30:24;;;;;;;6.70;5.30;;;;;;;1.05;73.40;100679.44;99395;1288;1003374;-71
2023/01/06 07:32:52;;;;;;;6.50;5.50;;;;;;;1.01;73.33;100679.92;100054;1297;97177;-71
2023/01/06 07:35:19;;;;;;;6.00;5.40;;;;;;;0.98;73.33;100677.48;100132;1292;111348;-70
2023/01/06 07:37:46;;;;;;;6.70;5.00;;;;;;;0.98;73.49;100675.25;99973;1294;136970;-71
2023/01/06 07:40:14;;;;;;;7.30;5.20;;;;;;;0.96;73.47;100677.11;100094;1295;96374;-70
2023/01/06 07:42:41;;;;;;;6.50;5.20;;;;;;;0.95;73.46;100679.15;100034;1294;138236;-71
2023/01/06 07:45:10;;;;;;;5.80;4.90;;;;;;;0.97;73.66;100672.84;100110;1288;96379;-70
2023/01/06 07:47:37;;;;;;;6.20;5.50;;;;;;;0.99;73.70;100672.35;100461;1288;108930;-71
2023/01/06 07:50:05;;;;;;;6.20;5.20;;;;;;;1.02;73.67;100683.01;99950;1289;139417;-70
2023/01/06 07:52:32;;;;;;;7.20;5.40;;;;;;;1.05;73.62;100679.45;99349;1289;1003353;-71
2023/01/06 07:55:01;;;;;;;7.10;5.80;;;;;;;1.07;73.46;100678.96;100001;1289;139534;-70
2023/01/06 07:57:29;;;;;;;7.00;5.70;;;;;;;1.10;73.72;100679.71;100166;1289;96482;-70
2023/01/06 07:59:56;;;;;;;8.90;6.40;;;;;;;1.16;73.72;100686.80;100108;1287;108995;-70
2023/01/06 08:02:24;;;;;;;7.00;5.20;;;;;;;1.19;73.57;100693.35;99259;1289;1003448;-70
2023/01/06 08:04:51;;;;;;;6.30;4.40;;;;;;;1.24;73.39;100693.39;100091;1288;96456;-70
2023/01/06 08:07:18;;;;;;;4.90;4.40;;;;;;;1.25;73.06;100698.37;99990;1291;138417;-71
2023/01/06 08:09:45;;;;;;;5.50;4.70;;;;;;;1.26;72.98;100697.20;99361;1288;1003356;-70
2023/01/06 08:12:12;;;;;;;5.20;4.60;;;;;;;1.26;72.72;100695.65;100112;1289;108967;-70
2023/01/06 08:14:39;;;;;;;5.60;5.00;;;;;;;1.27;72.75;100696.52;99903;1288;137630;-70
2023/01/06 08:17:07;;;;;;;5.90;5.00;;;;;;;1.26;72.64;100702.16;98639;1291;1003826;-70
2023/01/06 08:19:34;;;;;;;5.40;4.50;;;;;;;1.27;72.61;100704.58;99976;1291;137667;-71
2023/01/06 08:22:01;;;;;;;4.80;4.20;;;;;;;1.31;72.78;100708.07;100032;1289;96490;-70
2023/01/06 08:24:29;;;;;;;5.80;4.50;;;;;;;1.34;72.92;100709.64;99239;1295;1002937;-71
2023/01/06 08:26:58;;;;;;;5.70;4.50;;;;;;;1.39;72.79;100709.70;100045;1289;108702;-71
2023/01/06 08:29:25;;;;;;;5.40;4.20;;;;;;;1.43;72.58;100711.45;99343;1295;1003022;-70
2023/01/06 08:31:53;;;;;;;5.80;4.70;;;;;;;1.45;72.48;100707.91;99265;1288;1003611;-70
2023/01/06 08:34:35;;;;;;;5.70;4.80;;;;;;;1.48;72.54;100702.97;100052;1289;96412;-70
2023/01/06 08:37:03;;;;;;;6.90;5.10;;;;;;;1.53;72.55;100703.02;99974;1290;136950;-70
2023/01/06 08:39:30;;;;;;;6.90;5.10;;;;;;;1.57;72.42;100708.02;100019;1290;106678;-70
2023/01/06 08:41:57;;;;;;;5.20;4.60;;;;;;;1.60;72.19;100713.36;100116;1289;96313;-70
2023/01/06 08:44:24;;;;;;;10.00;6.80;;;;;;;1.61;72.18;100715.44;99959;1292;136983;-70
2023/01/06 08:46:51;;;;;;;9.20;6.70;;;;;;;1.62;72.06;100719.41;100130;1294;96472;-70
2023/01/06 08:49:18;;;;;;;9.00;6.10;;;;;;;1.63;71.66;100714.63;100055;1291;136995;-70
2023/01/06 08:51:46;;;;;;;6.00;4.90;;;;;;;1.63;71.70;100715.83;100009;1287;106703;-71
2023/01/06 08:54:14;;;;;;;6.50;5.20;;;;;;;1.64;71.86;100716.86;99342;1292;1003477;-70
2023/01/06 08:56:42;;;;;;;4.90;4.40;;;;;;;1.66;71.93;100710.72;99256;1284;1003194;-72
2023/01/06 08:59:12;;;;;;;5.30;4.30;;;;;;;1.70;71.88;100712.63;99245;1288;1003048;-71
2023/01/06 09:01:39;;;;;;;5.00;3.80;;;;;;;1.73;71.77;100712.84;99936;1289;137824;-71
2023/01/06 09:04:09;;;;;;;4.50;3.70;;;;;;;1.77;71.55;100718.02;100007;1288;107313;-69
2023/01/06 09:06:36;;;;;;;6.10;5.20;;;;;;;1.82;71.34;100717.92;99923;1287;137727;-71
2023/01/06 09:09:05;;;;;;;5.90;4.80;;;;;;;1.84;70.96;100718.80;100111;1288;106844;-71
2023/01/06 09:11:33;;;;;;;5.60;4.70;;;;;;;1.86;71.03;100715.73;99960;1289;96461;-69
2023/01/06 09:14:00;;;;;;;4.90;4.40;;;;;;;1.88;70.70;100715.41;99934;1293;136766;-70
2023/01/06 09:16:27;;;;;;;5.20;4.40;;;;;;;1.83;70.13;100718.44;100038;1297;106743;-70
2023/01/06 09:18:54;;;;;;;4.50;4.00;;;;;;;1.76;70.16;100726.08;99241;1287;1002855;-69
2023/01/06 09:21:23;;;;;;;6.00;4.40;;;;;;;1.76;70.17;100722.99;100109;1286;107524;-70
2023/01/06 09:23:50;;;;;;;5.60;4.40;;;;;;;1.80;70.31;100721.85;100106;1288;96530;-71
2023/01/06 09:26:20;;;;;;;7.10;4.20;;;;;;;1.82;70.36;100716.55;99910;1294;137137;-71
2023/01/06 09:28:47;;;;;;;5.70;4.80;;;;;;;1.83;70.30;100717.42;100057;1289;108679;-70
2023/01/06 09:31:16;;;;;;;5.80;4.60;;;;;;;1.81;70.42;100719.64;100173;1294;137140;-69
2023/01/06 09:33:44;;;;;;;7.30;5.20;;;;;;;1.80;70.41;100717.39;100916;1290;107874;-70
2023/01/06 09:36:11;;;;;;;7.10;5.50;;;;;;;1.81;70.52;100718.09;100129;1289;96467;-71
2023/01/06 09:38:38;;;;;;;6.90;5.00;;;;;;;1.80;70.67;100713.28;100003;1288;136911;-71
2023/01/06 09:41:21;;;;;;;7.40;4.20;;;;;;;1.79;70.29;100713.25;99378;1288;1003136;-69
2023/01/06 09:43:53;;;;;;;4.40;3.80;;;;;;;1.75;70.26;100712.69;100008;1282;137791;-69
2023/01/06 09:46:26;;;;;;;4.70;3.40;;;;;;;1.78;70.29;100711.01;100092;1281;107754;-69
2023/01/06 09:48:59;;;;;;;3.90;3.50;;;;;;;1.89;70.55;100712.49;100042;1290;137527;-71
2023/01/06 09:51:29;;;;;;;5.40;4.30;;;;;;;2.00;70.49;100719.83;100126;1295;109282;-69
2023/01/06 09:54:01;;;;;;;4.70;4.00;;;;;;;2.09;70.31;100719.39;100099;1288;107453;-70
2023/01/06 09:56:29;;;;;;;4.60;4.00;;;;;;;2.14;69.95;100714.45;100051;1282;137062;-70
2023/01/06 09:59:04;;;;;;;5.80;4.80;;;;;;;2.17;69.71;100707.65;100100;1289;107830;-69
2023/01/06 10:01:37;;;;;;;5.50;4.80;;;;;;;2.14;69.33;100701.09;99992;1294;137650;-70
2023/01/06 10:04:05;;;;;;;7.50;5.50;;;;;;;2.08;69.23;100700.69;100164;1295;109541;-70
2023/01/06 10:06:36;;;;;;;6.60;5.90;;;;;;;2.03;69.14;100705.80;99958;1289;137182;-70
2023/01/06 10:09:13;;;;;;;7.20;5.80;;;;;;;1.99;69.32;100705.77;100143;1294;96560;-70
2023/01/06 10:11:56;;;;;;;10.00;5.40;;;;;;;1.97;69.20;100704.35;100075;1287;107738;-70
2023/01/06 10:14:37;;;;;;;6.50;5.50;;;;;;;1.90;69.07;100701.88;99299;1295;1002980;-70
2023/01/06 10:17:20;;;;;;;7.30;5.10;;;;;;;1.84;69.27;100692.23;100772;1289;110000;-71
2023/01/06 10:20:04;;;;;;;6.40;5.50;;;;;;;1.79;69.26;100689.24;100498;1288;136957;-70
2023/01/06 10:22:39;;;;;;;9.50;5.60;;;;;;;1.77;69.41;100691.79;100123;1288;96455;-70
2023/01/06 10:25:18;;;;;;;7.30;5.60;;;;;;;1.75;69.64;100695.71;99769;1288;1002994;-71
2023/01/06 10:27:51;;;;;;;6.00;5.40;;;;;;;1.76;69.85;100692.82;100101;1281;96575;-70
2023/01/06 10:30:22;;;;;;;7.70;5.60;;;;;;;1.74;69.61;100682.17;101023;1289;110066;-70
2023/01/06 10:32:52;;;;;;;6.90;5.70;;;;;;;1.71;69.45;100686.25;100459;1287;1002342;-70
2023/01/06 10:35:24;;;;;;;7.40;6.10;;;;;;;1.59;69.40;100681.98;100223;1294;96472;-70
2023/01/06 10:37:53;;;;;;;6.60;5.00;;;;;;;1.52;69.57;100674.05;99925;1287;137717;-70
2023/01/06 10:40:24;;;;;;;7.00;5.10;;;;;;;1.48;69.78;100682.92;100029;1287;96344;-71
2023/01/06 10:42:59;;;;;;;5.30;4.50;;;;;;;1.51;69.74;100682.09;100412;1295;140356;-70
2023/01/06 10:45:31;;;;;;;6.30;4.80;;;;;;;1.53;69.48;100673.19;100207;1294;109297;-71
2023/01/06 10:48:00;;;;;;;6.60;5.50;;;;;;;1.58;69.67;100676.51;101321;1289;94733;-70
2023/01/06 10:50:27;;;;;;;5.40;4.70;;;;;;;1.63;69.75;100676.75;101550;1296;137470;-71
2023/01/06 10:52:54;;;;;;;6.90;5.30;;;;;;;1.63;69.59;100676.92;101650;1288;95824;-71
2023/01/06 10:55:33;;;;;;;6.10;5.50;;;;;;;1.67;69.68;100669.93;100809;1288;1002903;-71
2023/01/06 10:58:06;;;;;;;8.90;5.90;;;;;;;1.72;69.71;100670.49;101637;1289;108554;-70
2023/01/06 11:00:34;;;;;;;9.10;6.40;;;;;;;1.74;69.62;100664.34;99287;1287;1002664;-70
2023/01/06 11:03:06;;;;;;;8.10;6.10;;;;;;;1.73;69.53;100657.13;100347;1290;107806;-69
2023/01/06 11:06:05;;;;;;;7.90;5.80;;;;;;;1.76;69.70;100659.91;100112;1287;96342;-71
2023/01/06 11:08:34;;;;;;;6.60;5.90;;;;;;;1.77;69.70;100657.84;99999;1295;136949;-71
2023/01/06 11:11:01;;;;;;;7.90;6.50;;;;;;;1.76;69.57;100653.20;100942;1288;106590;-70
2023/01/06 11:13:32;;;;;;;9.40;7.10;;;;;;;1.71;69.33;100657.11;99732;1289;1003302;-71
2023/01/06 11:16:02;;;;;;;9.10;7.40;;;;;;;1.65;69.34;100651.23;100637;1285;107771;-71
2023/01/06 11:18:32;;;;;;;8.80;7.00;;;;;;;1.61;69.58;100652.53;100656;1295;1015509;-71
2023/01/06 11:21:06;;;;;;;10.10;7.40;;;;;;;1.59;69.93;100647.89;100430;1287;111832;-70
2023/01/06 11:23:34;;;;;;;11.80;8.00;;;;;;;1.59;70.04;100640.17;100600;1288;107174;-70
2023/01/06 11:26:12;;;;;;;10.60;7.50;;;;;;;1.61;70.12;100635.21;99993;1288;138037;-70
2023/01/06 11:28:40;;;;;;;9.40;7.80;;;;;;;1.63;70.18;100630.98;99404;1289;1003705;-70
2023/01/06 11:31:10;;;;;;;9.00;7.30;;;;;;;1.65;70.32;100627.92;100013;1289;137808;-71
2023/01/06 11:33:47;;;;;;;8.50;6.90;;;;;;;1.68;70.36;100629.83;100129;1294;111125;-70
2023/01/06 11:36:16;;;;;;;10.20;7.60;;;;;;;1.70;70.01;100630.02;100026;1285;107288;-71
2023/01/06 11:38:47;;;;;;;8.10;6.70;;;;;;;1.70;70.05;100634.98;100002;1289;137947;-71